Airfield :
LOGIN :

Register | Disclaimer

   EN    FR    IT 

 










Legend :    VFR   Marginal VFR   IFR   Intensive IFR   Very Intensive IFR
Visi :
Ceiling :
>= 8 km
>= 3000ft
5 to 8 km
1000 to 3000 ft
1500m to 5 km
500 to 1000 ft
800 to 1500m
200 to 500 ft
< 800m
< 200 ft
Symbols :   Thunderstorms  Fog  Heavy snow  Heavy precipitations  Wind > 20 kt
SIGMETs :     Misc.  Thunderstorms  Icing  Turbulence  Mountain Waves  Volcanic Ashes






- Airport Elevation : 12 ft
- IATA code : CQF


LFAC - Calais

CURRENT METAR :
  • 290900Z AUTO 36013KT 330V060 9999 FEW036 SCT050 OVC062 13/07 Q1019

EXPIRED METARs :
  • 290830Z AUTO 01010KT 340V050 9999 FEW020 SCT029 BKN049 12/07 Q1019
  • 290800Z AUTO 36013KT 340V050 9999 FEW038/// BKN052/// ///TCU 13/07 Q1019
  • 290730Z AUTO 01013KT 9999 SCT040/// OVC050/// ///TCU 12/07 Q1019
  • 290700Z AUTO 01014KT 9999 -RA FEW019 SCT024 BKN041 11/08 Q1019
  • 290630Z AUTO 36012KT 340V060 9999 BKN024 BKN029 BKN044 11/06 Q1019

TAF N/A
ATIS : +33 3 21 00 11 14



MET'MAP, your aeronautical weather chart ! - Copyright ORBIFLY December 2007 - Disclaimer

ORBIFLY MET'MAP TEAM :

Programming & Development : Alexandra Zaïnal
Original concept : Baudouin d'Aumeries
Technical & hardware support : Manuel Goepfert
Assistance : Marc-Olivier Méhu

Contact : metmap@orbifly.com




SOURCES & CREDITS :

   NOAA